Time;durP1;ratioP1;P1;durP2;ratioP2;P2;SDS_P1;SDS_P2;PMS_P1;PMS_P2;Temp;Humidity;BMP_temperature;BMP_pressure;BME280_temperature;BME280_humidity;BME280_pressure;Samples;Min_cycle;Max_cycle;Signal;HPM_P1;HPM_P2
2022/10/17 00:01:41;;;;;;;8.25;6.80;;;;;;;15.28;77.29;101507.22;5031401;28;20037;-66
2022/10/17 00:04:06;;;;;;;7.32;6.35;;;;;;;15.25;77.66;101507.75;5030239;28;20033;-66
2022/10/17 00:06:31;;;;;;;8.38;6.35;;;;;;;15.27;77.87;101499.94;5031444;28;20036;-67
2022/10/17 00:08:56;;;;;;;8.13;7.05;;;;;;;15.27;78.06;101498.00;5030327;28;20017;-67
2022/10/17 00:11:23;;;;;;;9.98;7.05;;;;;;;15.26;78.37;101504.72;5015343;28;20522;-67
2022/10/17 00:13:50;;;;;;;8.80;6.40;;;;;;;15.30;78.39;101508.66;5030418;28;20424;-66
2022/10/17 00:16:23;;;;;;;7.55;6.40;;;;;;;15.29;78.62;101501.38;5031628;28;20384;-67
2022/10/17 00:18:48;;;;;;;9.73;6.80;;;;;;;15.30;78.99;101500.25;5028758;28;20087;-66
2022/10/17 00:21:15;;;;;;;8.40;7.20;;;;;;;15.32;78.57;101499.97;5030873;28;20021;-67
2022/10/17 00:23:40;;;;;;;7.35;6.65;;;;;;;15.31;78.14;101498.31;5030224;28;20546;-67
2022/10/17 00:26:06;;;;;;;11.35;7.07;;;;;;;15.31;78.78;101496.34;5030272;28;20037;-67
2022/10/17 00:28:31;;;;;;;7.20;6.50;;;;;;;15.30;78.75;101489.06;5030777;28;20021;-67
2022/10/17 00:30:59;;;;;;;8.55;7.75;;;;;;;15.32;79.09;101492.44;5031631;28;20021;-67
2022/10/17 00:33:25;;;;;;;8.40;7.60;;;;;;;15.35;79.68;101488.25;5030538;28;20377;-67
2022/10/17 00:35:51;;;;;;;8.73;7.90;;;;;;;15.32;79.57;101481.22;5031265;28;20048;-67
2022/10/17 00:38:16;;;;;;;10.40;7.80;;;;;;;15.35;79.59;101488.25;5030610;28;20064;-66
2022/10/17 00:40:41;;;;;;;8.88;7.97;;;;;;;15.34;79.55;101479.03;5024250;28;20507;-68
2022/10/17 00:43:16;;;;;;;8.98;8.15;;;;;;;15.33;79.85;101477.34;5030942;28;20037;-67
2022/10/17 00:45:42;;;;;;;9.15;8.07;;;;;;;15.34;79.76;101478.19;5028854;28;21045;-67
2022/10/17 00:48:10;;;;;;;10.63;8.48;;;;;;;15.33;79.99;101484.91;5031171;28;20053;-66
2022/10/17 00:50:38;;;;;;;9.90;7.90;;;;;;;15.35;79.84;101482.66;5029965;28;20072;-67
2022/10/17 00:53:05;;;;;;;9.00;8.10;;;;;;;15.37;79.51;101488.84;5028081;28;20052;-67
2022/10/17 00:55:34;;;;;;;10.80;8.90;;;;;;;15.33;80.54;101479.31;5029489;28;20037;-67
2022/10/17 00:58:03;;;;;;;8.85;8.05;;;;;;;15.31;80.39;101482.34;5029975;28;20038;-67
2022/10/17 01:00:28;;;;;;;9.18;8.02;;;;;;;15.36;80.13;101481.53;5029625;28;20041;-67
2022/10/17 01:02:54;;;;;;;12.02;9.15;;;;;;;15.35;80.38;101477.91;5030458;28;20025;-67
2022/10/17 01:05:20;;;;;;;9.27;8.25;;;;;;;15.36;80.03;101476.78;5030975;28;20033;-67
2022/10/17 01:07:47;;;;;;;8.75;7.95;;;;;;;15.29;79.42;101487.41;5030418;28;20033;-67
2022/10/17 01:10:13;;;;;;;9.60;8.60;;;;;;;15.34;80.21;101479.03;5019375;28;20576;-67
2022/10/17 01:12:45;;;;;;;10.93;8.82;;;;;;;15.32;80.16;101477.59;5029905;28;20036;-67
2022/10/17 01:15:29;;;;;;;10.70;8.55;;;;;;;15.35;80.38;101479.88;5028815;28;20076;-67
2022/10/17 01:18:18;;;;;;;10.48;9.07;;;;;;;15.34;80.29;101478.19;5028148;28;20124;-67
2022/10/17 01:20:58;;;;;;;12.55;8.93;;;;;;;15.33;80.54;101482.94;5020933;28;20555;-67
2022/10/17 01:23:53;;;;;;;10.75;9.60;;;;;;;15.32;80.78;101480.41;5030822;28;20037;-67
2022/10/17 01:26:22;;;;;;;9.48;8.57;;;;;;;15.32;80.39;101481.22;5028849;28;20120;-67
2022/10/17 01:29:23;;;;;;;10.30;9.18;;;;;;;15.30;80.90;101475.09;5030033;28;20073;-67
2022/10/17 01:31:58;;;;;;;10.38;8.82;;;;;;;15.32;81.33;101472.84;5012567;28;20132;-67
2022/10/17 01:34:34;;;;;;;11.23;9.68;;;;;;;15.36;81.60;101471.19;5025113;28;20025;-67
2022/10/17 01:37:05;;;;;;;10.40;9.30;;;;;;;15.38;81.64;101477.38;5029870;28;20535;-67
2022/10/17 01:39:52;;;;;;;10.32;9.10;;;;;;;15.43;81.74;101468.16;5029622;28;20060;-67
2022/10/17 01:42:20;;;;;;;11.18;9.57;;;;;;;15.41;82.41;101465.66;5027554;28;20388;-67
2022/10/17 01:45:01;;;;;;;10.70;9.63;;;;;;;15.37;82.55;101464.50;5029014;28;20030;-67
2022/10/17 01:47:32;;;;;;;11.30;9.55;;;;;;;15.38;82.85;101463.38;5029569;28;20037;-67
2022/10/17 01:50:09;;;;;;;10.77;9.27;;;;;;;15.41;82.54;101468.44;5027849;28;20079;-67
2022/10/17 01:52:46;;;;;;;10.77;9.18;;;;;;;15.41;82.53;101462.00;5027164;28;20037;-67
2022/10/17 01:55:17;;;;;;;13.65;9.65;;;;;;;15.43;82.67;101468.16;5029440;28;20034;-67
2022/10/17 01:57:49;;;;;;;14.37;9.90;;;;;;;15.43;82.74;101470.97;5028377;28;20104;-67
2022/10/17 02:00:19;;;;;;;13.68;9.60;;;;;;;15.43;82.61;101470.97;5028968;28;20311;-67
2022/10/17 02:02:50;;;;;;;10.07;9.07;;;;;;;15.44;82.75;101459.53;5028248;28;20021;-67
2022/10/17 02:05:20;;;;;;;11.77;9.07;;;;;;;15.44;82.84;101455.84;5030079;28;20025;-67
2022/10/17 02:07:46;;;;;;;11.43;9.73;;;;;;;15.42;82.97;101458.94;5030763;28;20029;-67
2022/10/17 02:10:21;;;;;;;11.43;10.23;;;;;;;15.44;82.54;101453.06;5028540;28;20022;-67
2022/10/17 02:12:55;;;;;;;10.85;9.15;;;;;;;15.41;82.82;101446.06;5029095;28;20108;-67
2022/10/17 02:15:42;;;;;;;10.00;8.98;;;;;;;15.46;82.81;101440.50;5025908;28;20068;-67
2022/10/17 02:18:32;;;;;;;10.32;9.23;;;;;;;15.44;83.09;101439.94;5028964;28;20025;-67
2022/10/17 02:21:10;;;;;;;12.45;10.23;;;;;;;15.44;83.10;101445.53;5029047;28;20060;-67
2022/10/17 02:23:47;;;;;;;11.95;9.85;;;;;;;15.44;83.08;101445.53;5033258;28;20029;-67
2022/10/17 02:26:24;;;;;;;10.13;9.02;;;;;;;15.44;83.39;101450.25;5030840;28;20465;-67
2022/10/17 02:29:04;;;;;;;13.52;9.02;;;;;;;15.46;83.00;101448.03;5031582;28;20033;-67
2022/10/17 02:31:34;;;;;;;12.15;9.65;;;;;;;15.44;83.36;101451.13;5031043;28;20037;-67
2022/10/17 02:34:08;;;;;;;13.05;9.20;;;;;;;15.45;83.66;101444.41;5033153;28;20384;-68
2022/10/17 02:36:47;;;;;;;10.88;9.60;;;;;;;15.48;83.05;101451.41;5029980;28;20049;-67
2022/10/17 02:39:15;;;;;;;9.93;8.73;;;;;;;15.46;83.60;101460.06;5032062;28;20087;-67
2022/10/17 02:41:43;;;;;;;9.18;8.23;;;;;;;15.50;83.46;101449.19;5032740;28;20067;-67
2022/10/17 02:44:10;;;;;;;12.77;8.98;;;;;;;15.50;84.06;101451.16;5032850;28;20369;-67
2022/10/17 02:46:37;;;;;;;10.90;8.65;;;;;;;15.48;84.23;101443.00;5032776;28;20033;-67
2022/10/17 02:49:16;;;;;;;10.50;9.45;;;;;;;15.50;83.83;101449.19;5032818;28;20487;-67
2022/10/17 02:52:04;;;;;;;10.82;9.18;;;;;;;15.52;84.08;101446.09;5030652;28;20022;-67
2022/10/17 02:54:39;;;;;;;10.20;8.95;;;;;;;15.51;84.27;101445.28;5033251;28;20035;-67
2022/10/17 02:57:21;;;;;;;10.15;8.90;;;;;;;15.50;83.98;101440.78;5033365;28;20091;-67
2022/10/17 02:59:47;;;;;;;13.55;9.13;;;;;;;15.50;84.07;101446.38;5021212;28;20032;-67
2022/10/17 03:02:13;;;;;;;11.43;9.55;;;;;;;15.50;84.13;101448.34;5033160;28;20029;-67
2022/10/17 03:04:43;;;;;;;11.85;9.07;;;;;;;15.50;84.17;101453.94;5032768;28;20029;-67
2022/10/17 03:07:08;;;;;;;10.40;9.00;;;;;;;15.53;83.64;101450.63;5032164;28;20092;-67
2022/10/17 03:09:33;;;;;;;10.43;9.30;;;;;;;15.52;84.03;101446.94;5033042;28;20029;-67
2022/10/17 03:11:58;;;;;;;14.48;8.98;;;;;;;15.52;83.80;101446.09;5033000;28;20517;-67
2022/10/17 03:14:24;;;;;;;11.27;9.20;;;;;;;15.51;84.35;101445.28;5024912;28;20065;-67
2022/10/17 03:16:49;;;;;;;10.93;9.02;;;;;;;15.52;84.24;101446.94;5031232;28;20039;-67
2022/10/17 03:19:14;;;;;;;15.30;8.93;;;;;;;15.51;84.31;101444.44;5032065;28;20025;-67
2022/10/17 03:21:40;;;;;;;10.80;8.82;;;;;;;15.54;83.97;101441.09;5030402;28;20087;-67
2022/10/17 03:24:05;;;;;;;10.35;9.18;;;;;;;15.54;84.02;101443.91;5032066;28;20022;-67
2022/10/17 03:26:31;;;;;;;12.82;9.35;;;;;;;15.51;84.36;101442.47;5030866;28;20029;-67
2022/10/17 03:28:59;;;;;;;12.60;9.43;;;;;;;15.54;84.00;101443.91;5025082;28;20568;-67
2022/10/17 03:31:24;;;;;;;11.75;9.00;;;;;;;15.50;84.62;101445.56;5027585;28;20065;-67
2022/10/17 03:33:49;;;;;;;11.07;9.32;;;;;;;15.51;84.28;101448.06;5032384;28;20041;-67
2022/10/17 03:36:17;;;;;;;13.40;9.80;;;;;;;15.49;84.60;101443.88;5031016;28;20068;-67
2022/10/17 03:38:43;;;;;;;11.43;9.13;;;;;;;15.49;84.70;101446.66;5032771;28;20124;-67
2022/10/17 03:41:11;;;;;;;10.77;8.63;;;;;;;15.50;84.69;101442.75;5031517;28;20089;-67
2022/10/17 03:43:38;;;;;;;12.38;9.02;;;;;;;15.49;84.71;101443.88;5031644;28;20663;-67
2022/10/17 03:46:03;;;;;;;12.43;8.90;;;;;;;15.50;84.64;101442.75;5031854;28;20041;-67
2022/10/17 03:48:29;;;;;;;11.45;8.60;;;;;;;15.51;84.71;101438.84;5032062;28;20436;-67
2022/10/17 03:51:02;;;;;;;11.05;9.65;;;;;;;15.50;84.69;101432.41;5031642;28;20021;-67
2022/10/17 03:53:28;;;;;;;11.65;8.85;;;;;;;15.50;84.83;101432.41;5032465;28;20372;-67
2022/10/17 03:55:53;;;;;;;10.77;8.88;;;;;;;15.52;84.81;101435.75;5029937;28;20021;-67
2022/10/17 03:58:19;;;;;;;12.50;8.77;;;;;;;15.52;84.83;101429.31;5023028;28;20430;-67
2022/10/17 04:00:44;;;;;;;12.52;8.93;;;;;;;15.52;84.77;101443.31;5031217;28;20052;-67
2022/10/17 04:03:09;;;;;;;15.45;8.90;;;;;;;15.56;84.38;101450.03;5030781;28;20108;-67
2022/10/17 04:05:35;;;;;;;14.05;9.10;;;;;;;15.56;84.64;101447.25;5031243;28;20036;-67
2022/10/17 04:08:00;;;;;;;11.70;8.50;;;;;;;15.56;84.72;101441.66;5030301;28;20060;-67
2022/10/17 04:10:25;;;;;;;11.25;9.50;;;;;;;15.56;84.87;101452.84;5018137;28;20026;-67
2022/10/17 04:12:51;;;;;;;17.25;10.13;;;;;;;15.54;85.21;101450.31;5032284;28;20025;-67
2022/10/17 04:15:16;;;;;;;9.75;8.43;;;;;;;15.55;85.26;101454.81;5030105;28;20489;-67
2022/10/17 04:17:41;;;;;;;12.18;8.38;;;;;;;15.56;85.06;101448.13;5030511;28;20052;-67
2022/10/17 04:20:07;;;;;;;9.80;8.80;;;;;;;15.57;85.08;101463.78;5030331;28;20060;-67
2022/10/17 04:22:32;;;;;;;12.77;8.38;;;;;;;15.58;85.16;101456.22;5030242;28;20022;-67
2022/10/17 04:24:58;;;;;;;12.15;8.18;;;;;;;15.59;85.35;101460.69;5029400;28;20076;-67
2022/10/17 04:27:23;;;;;;;11.70;8.20;;;;;;;15.57;85.34;101468.53;5031217;28;20441;-67
2022/10/17 04:29:48;;;;;;;9.60;8.60;;;;;;;15.59;85.50;101466.28;5030152;28;20045;-67
2022/10/17 04:32:14;;;;;;;12.63;8.57;;;;;;;15.58;85.67;101470.22;5030856;28;20029;-67
2022/10/17 04:34:39;;;;;;;9.93;8.07;;;;;;;15.57;85.58;101468.53;5031822;28;20028;-67
2022/10/17 04:37:04;;;;;;;11.55;8.63;;;;;;;15.59;85.60;101475.53;5031521;28;20416;-67
2022/10/17 04:39:33;;;;;;;9.25;8.00;;;;;;;15.58;85.78;101473.84;5030214;28;20036;-68
2022/10/17 04:41:58;;;;;;;13.13;8.30;;;;;;;15.59;85.57;101485.88;5031725;28;20030;-67
2022/10/17 04:44:23;;;;;;;11.07;8.40;;;;;;;15.60;85.71;101493.16;5029909;28;20047;-67
2022/10/17 04:46:48;;;;;;;10.93;8.27;;;;;;;15.61;85.67;101492.06;5029552;28;20099;-68
2022/10/17 04:49:14;;;;;;;9.73;7.90;;;;;;;15.62;85.74;101482.56;5030302;28;20427;-67
2022/10/17 04:51:39;;;;;;;8.63;7.47;;;;;;;15.61;85.94;101494.88;5029676;28;20029;-68
2022/10/17 04:54:05;;;;;;;11.65;7.53;;;;;;;15.63;85.51;101507.44;5031444;28;20022;-68
2022/10/17 04:56:30;;;;;;;15.73;8.30;;;;;;;15.63;85.43;101506.59;5030579;28;20354;-67
2022/10/17 04:58:58;;;;;;;9.73;7.72;;;;;;;15.63;85.41;101509.41;5027489;28;20079;-68
2022/10/17 05:01:24;;;;;;;9.88;7.75;;;;;;;15.61;85.72;101506.91;5024189;28;20036;-67
2022/10/17 05:03:49;;;;;;;8.55;7.50;;;;;;;15.61;85.74;101518.09;5030247;28;20055;-67
2022/10/17 05:06:20;;;;;;;10.68;7.78;;;;;;;15.62;85.96;101516.97;5029240;28;20457;-68
2022/10/17 05:08:46;;;;;;;8.27;7.47;;;;;;;15.64;85.94;101520.34;5030254;28;20071;-68
2022/10/17 05:11:17;;;;;;;13.07;7.15;;;;;;;15.65;85.99;101508.06;5030018;28;20022;-67
2022/10/17 05:13:42;;;;;;;12.75;7.68;;;;;;;15.67;85.59;101497.44;5030293;28;20427;-66
2022/10/17 05:16:07;;;;;;;16.73;7.30;;;;;;;15.68;85.73;101493.53;5023221;28;20636;-67
2022/10/17 05:18:33;;;;;;;8.93;6.60;;;;;;;15.69;85.85;101503.59;5018890;28;20028;-67
2022/10/17 05:20:58;;;;;;;9.13;7.05;;;;;;;15.70;85.87;101510.06;5029274;28;20029;-67
2022/10/17 05:23:23;;;;;;;11.68;7.75;;;;;;;15.72;86.24;101521.81;5031142;28;20052;-67
2022/10/17 05:25:54;;;;;;;10.00;7.68;;;;;;;15.73;86.05;101519.88;5030940;28;20026;-67
2022/10/17 05:28:19;;;;;;;9.98;7.45;;;;;;;15.72;86.09;101521.81;5028528;28;20504;-68
2022/10/17 05:30:44;;;;;;;10.93;6.88;;;;;;;15.74;86.21;101522.38;5028472;28;20033;-67
2022/10/17 05:33:10;;;;;;;9.93;7.32;;;;;;;15.74;86.45;101530.78;5026070;28;20034;-67
2022/10/17 05:35:35;;;;;;;16.33;7.78;;;;;;;15.74;86.77;101527.97;5018366;28;20358;-67
2022/10/17 05:38:00;;;;;;;8.32;6.80;;;;;;;15.75;86.70;101526.84;5027191;28;20044;-67
2022/10/17 05:40:26;;;;;;;10.73;7.28;;;;;;;15.76;86.92;101528.56;5029506;28;20534;-67
2022/10/17 05:42:51;;;;;;;14.07;7.30;;;;;;;15.78;87.02;101534.72;5029281;28;20026;-67
2022/10/17 05:45:17;;;;;;;8.68;7.68;;;;;;;15.79;86.94;101538.34;5029633;28;20032;-68
2022/10/17 05:47:42;;;;;;;7.45;6.55;;;;;;;15.79;86.79;101533.59;5027228;28;20018;-69
2022/10/17 05:50:08;;;;;;;8.40;6.78;;;;;;;15.80;86.89;101538.09;5028561;28;20107;-68
2022/10/17 05:52:34;;;;;;;9.20;6.75;;;;;;;15.81;86.71;101542.59;5027709;28;20159;-67
2022/10/17 05:54:59;;;;;;;14.07;7.22;;;;;;;15.83;86.85;101548.72;5029441;28;20026;-67
2022/10/17 05:57:25;;;;;;;8.63;7.80;;;;;;;15.83;86.81;101531.94;5030816;28;20025;-67
2022/10/17 05:59:50;;;;;;;9.02;6.88;;;;;;;15.84;86.89;101542.03;5033955;28;20033;-67
2022/10/17 06:02:16;;;;;;;10.00;7.63;;;;;;;15.85;86.88;101540.91;5029732;28;20064;-67
2022/10/17 06:04:44;;;;;;;8.43;7.55;;;;;;;15.85;86.72;101538.13;5031142;28;20034;-68
2022/10/17 06:07:13;;;;;;;12.20;7.00;;;;;;;15.85;86.94;101531.69;5030344;28;20040;-67
2022/10/17 06:09:39;;;;;;;10.23;7.38;;;;;;;15.85;86.96;101540.09;5026623;28;20074;-67
2022/10/17 06:12:04;;;;;;;11.40;7.03;;;;;;;15.88;86.87;101542.34;5029628;28;20033;-67
2022/10/17 06:14:30;;;;;;;11.18;7.38;;;;;;;15.87;87.06;101541.47;5020215;28;20069;-67
2022/10/17 06:16:55;;;;;;;9.90;7.65;;;;;;;15.87;86.55;101549.88;5029643;28;20087;-67
2022/10/17 06:19:20;;;;;;;8.88;6.95;;;;;;;15.88;86.56;101545.97;5031111;28;20047;-66
2022/10/17 06:21:46;;;;;;;9.40;6.78;;;;;;;15.88;86.46;101545.97;5028503;28;20033;-67
2022/10/17 06:24:11;;;;;;;7.78;6.70;;;;;;;15.89;86.57;101547.66;5023611;28;20034;-67
2022/10/17 06:26:36;;;;;;;11.55;7.00;;;;;;;15.89;86.80;101547.66;5026582;28;20029;-67
2022/10/17 06:29:02;;;;;;;12.30;7.32;;;;;;;15.90;86.62;101545.69;5020686;28;20123;-68
2022/10/17 06:31:27;;;;;;;11.40;7.13;;;;;;;15.91;86.55;101555.78;5030915;28;20026;-67
2022/10/17 06:33:53;;;;;;;8.88;7.18;;;;;;;15.92;86.60;101552.72;5027585;28;20037;-68
2022/10/17 06:36:18;;;;;;;8.80;6.75;;;;;;;15.92;86.68;101547.13;5021694;28;20073;-67
2022/10/17 06:38:44;;;;;;;9.07;7.20;;;;;;;15.94;86.59;101546.84;5022288;28;20022;-67
2022/10/17 06:41:13;;;;;;;9.32;6.93;;;;;;;15.94;86.58;101558.03;5017293;28;20421;-67
2022/10/17 06:43:42;;;;;;;14.05;7.75;;;;;;;15.95;86.54;101556.91;5025377;28;20083;-68
2022/10/17 06:46:07;;;;;;;12.55;7.30;;;;;;;15.98;86.32;101566.75;5026436;28;20037;-70
2022/10/17 06:48:33;;;;;;;10.73;6.53;;;;;;;15.99;86.41;101571.22;5031297;28;20025;-67
2022/10/17 06:51:06;;;;;;;8.73;6.95;;;;;;;16.00;86.20;101570.97;5025265;28;20135;-66
2022/10/17 06:53:33;;;;;;;10.95;7.00;;;;;;;16.01;86.19;101577.41;5019954;28;20061;-67
2022/10/17 06:56:03;;;;;;;11.40;7.13;;;;;;;16.03;86.46;101577.97;5019045;28;20037;-67
2022/10/17 06:58:30;;;;;;;9.38;6.93;;;;;;;16.03;86.21;101573.19;5025044;28;20041;-68
2022/10/17 07:01:13;;;;;;;10.63;6.88;;;;;;;16.05;86.42;101573.78;5025143;28;20060;-67
2022/10/17 07:03:39;;;;;;;9.98;6.88;;;;;;;16.06;86.29;101563.41;5030894;28;20025;-67
2022/10/17 07:06:06;;;;;;;10.80;6.88;;;;;;;16.09;86.06;101574.09;5026691;28;20037;-66
2022/10/17 07:08:31;;;;;;;9.13;7.25;;;;;;;16.10;86.04;101579.41;5024161;28;20493;-66
2022/10/17 07:10:57;;;;;;;11.93;6.80;;;;;;;16.11;86.11;101588.63;5030701;28;20060;-67
2022/10/17 07:13:23;;;;;;;10.13;7.20;;;;;;;16.12;86.09;101581.94;5028153;28;20069;-67
2022/10/17 07:15:48;;;;;;;13.25;7.22;;;;;;;16.13;86.10;101586.41;5018048;28;20427;-66
2022/10/17 07:18:14;;;;;;;9.90;6.68;;;;;;;16.13;85.90;101578.84;5030123;28;20035;-67
2022/10/17 07:20:39;;;;;;;13.30;7.07;;;;;;;16.15;85.56;101576.66;5025772;28;20061;-67
2022/10/17 07:23:04;;;;;;;7.47;6.75;;;;;;;16.17;85.62;101590.38;5030891;28;20061;-66
2022/10/17 07:25:30;;;;;;;9.18;6.38;;;;;;;16.18;85.70;101598.47;5030633;28;20372;-68
2022/10/17 07:27:55;;;;;;;10.70;6.95;;;;;;;16.20;85.50;101592.63;5020134;28;20021;-66
2022/10/17 07:30:21;;;;;;;10.45;7.13;;;;;;;16.21;85.38;101599.91;5029050;28;20025;-66
2022/10/17 07:32:53;;;;;;;9.02;6.30;;;;;;;16.22;85.36;101607.19;5028646;28;20087;-68
2022/10/17 07:35:21;;;;;;;7.93;5.90;;;;;;;16.24;85.23;101629.34;5025591;28;20473;-67
2022/10/17 07:37:46;;;;;;;9.35;6.22;;;;;;;16.24;84.92;101654.56;5028514;28;20152;-69
2022/10/17 07:40:12;;;;;;;11.18;6.40;;;;;;;16.25;85.31;101678.63;5023516;28;20159;-68
2022/10/17 07:42:38;;;;;;;12.25;6.18;;;;;;;16.24;85.23;101693.78;5025914;28;20469;-67
2022/10/17 07:45:04;;;;;;;8.02;5.68;;;;;;;16.24;85.24;101708.63;5026672;28;20451;-67
2022/10/17 07:47:30;;;;;;;7.45;6.32;;;;;;;16.24;84.38;101707.78;5028357;28;20504;-69
2022/10/17 07:49:58;;;;;;;10.75;6.35;;;;;;;16.23;85.54;101734.06;5030773;28;20029;-67
2022/10/17 07:52:23;;;;;;;9.10;6.10;;;;;;;16.23;85.16;101737.75;5032263;28;20033;-67
2022/10/17 07:54:49;;;;;;;8.52;6.35;;;;;;;16.26;85.35;101741.94;5015014;28;20527;-67
2022/10/17 07:57:14;;;;;;;8.57;5.75;;;;;;;16.25;85.47;101749.50;5029632;28;20033;-68
2022/10/17 07:59:39;;;;;;;12.95;6.85;;;;;;;16.25;86.03;101735.50;5029665;28;20029;-68
2022/10/17 08:02:06;;;;;;;8.55;5.75;;;;;;;16.26;86.44;101744.75;5023383;28;20032;-68
2022/10/17 08:04:33;;;;;;;11.38;6.10;;;;;;;16.28;86.76;101739.72;5021023;28;20013;-67
2022/10/17 08:06:59;;;;;;;10.15;6.70;;;;;;;16.25;86.64;101741.09;5026736;28;20477;-69
2022/10/17 08:09:24;;;;;;;13.32;6.85;;;;;;;16.26;86.85;101736.34;5027845;28;20044;-68
2022/10/17 08:11:50;;;;;;;8.15;6.85;;;;;;;16.26;87.15;101734.38;5028499;28;20033;-69
2022/10/17 08:14:15;;;;;;;10.10;6.72;;;;;;;16.26;87.13;101737.19;5012525;28;20042;-77
2022/10/17 08:16:41;;;;;;;9.10;6.78;;;;;;;16.26;86.92;101753.16;5011271;28;20041;-76
2022/10/17 08:19:07;;;;;;;8.55;6.55;;;;;;;16.27;86.99;101768.84;5015690;28;20038;-76
2022/10/17 08:21:33;;;;;;;11.63;6.88;;;;;;;16.26;87.46;101790.41;5021208;28;20064;-72
2022/10/17 08:24:00;;;;;;;9.25;7.40;;;;;;;16.25;87.54;101808.34;5028661;28;20546;-75
2022/10/17 08:26:26;;;;;;;9.23;7.18;;;;;;;16.27;87.09;101808.06;5027982;28;20056;-76
2022/10/17 08:28:51;;;;;;;12.18;7.55;;;;;;;16.26;87.74;101786.75;5034966;28;20025;-77
2022/10/17 08:31:18;;;;;;;13.07;8.07;;;;;;;16.26;87.61;101800.78;5026418;28;20045;-73
2022/10/17 08:33:45;;;;;;;13.60;7.53;;;;;;;16.26;86.96;101803.56;5025874;28;20029;-73
2022/10/17 08:36:16;;;;;;;10.95;7.72;;;;;;;16.27;87.29;101811.72;5025466;28;20034;-65
2022/10/17 08:38:42;;;;;;;14.98;8.05;;;;;;;16.28;87.74;101796.59;5026681;28;20538;-69
2022/10/17 08:41:35;;;;;;;10.85;7.50;;;;;;;16.26;87.92;101804.41;5027654;28;20108;-77
2022/10/17 08:44:21;;;;;;;12.32;7.70;;;;;;;16.29;87.63;101809.50;5027461;28;20065;-76
2022/10/17 08:46:50;;;;;;;10.60;7.78;;;;;;;16.26;88.33;101800.78;5021352;28;20033;-73
2022/10/17 08:49:38;;;;;;;12.00;7.88;;;;;;;16.31;88.08;101795.19;5030410;28;20428;-73
2022/10/17 08:52:33;;;;;;;11.88;7.13;;;;;;;16.33;87.46;101793.84;5026401;28;20037;-77
2022/10/17 08:54:59;;;;;;;7.88;6.85;;;;;;;16.30;88.03;101793.53;5029015;28;20030;-74
2022/10/17 08:57:24;;;;;;;11.73;7.13;;;;;;;16.30;88.37;101787.91;5014613;28;20045;-75
2022/10/17 08:59:52;;;;;;;12.15;7.72;;;;;;;16.29;88.57;101798.28;5013267;28;20033;-75
2022/10/17 09:02:42;;;;;;;10.70;7.45;;;;;;;16.30;88.58;101796.31;5027437;28;20022;-75
2022/10/17 09:05:26;;;;;;;9.50;6.82;;;;;;;16.30;88.21;101805.56;5013662;28;20068;-75
2022/10/17 09:08:22;;;;;;;14.07;7.47;;;;;;;16.31;88.29;101809.22;5022018;28;20048;-75
2022/10/17 09:11:19;;;;;;;9.23;7.43;;;;;;;16.31;88.46;101818.47;5024183;28;20116;-75
2022/10/17 09:14:14;;;;;;;12.05;7.55;;;;;;;16.31;88.02;101843.69;5022419;28;20187;-76
2022/10/17 09:17:04;;;;;;;10.00;7.15;;;;;;;16.32;88.03;101856.59;5020593;28;20032;-74
2022/10/17 09:19:42;;;;;;;11.13;8.45;;;;;;;16.30;88.59;101861.59;5026167;28;20033;-76
2022/10/17 09:22:18;;;;;;;10.55;8.23;;;;;;;16.30;88.62;101877.56;5027179;28;20130;-76
2022/10/17 09:24:49;;;;;;;10.57;8.00;;;;;;;16.27;89.83;101861.28;5027161;28;20594;-74
2022/10/17 09:27:46;;;;;;;11.20;7.57;;;;;;;16.28;89.03;101838.63;5025793;28;20021;-79
2022/10/17 09:30:34;;;;;;;12.63;8.35;;;;;;;16.26;89.13;101787.59;5028689;28;20029;-79
2022/10/17 09:33:00;;;;;;;15.73;8.02;;;;;;;16.27;89.45;101760.44;5026761;28;20798;-76
2022/10/17 09:35:27;;;;;;;12.80;8.27;;;;;;;16.25;89.35;101766.31;5026769;28;20038;-79
2022/10/17 09:37:53;;;;;;;11.88;8.35;;;;;;;16.28;89.70;101773.34;5026697;28;20022;-78
2022/10/17 09:40:26;;;;;;;13.57;8.48;;;;;;;16.28;89.64;101781.75;5022976;28;20059;-77
2022/10/17 09:42:52;;;;;;;11.27;8.02;;;;;;;16.29;89.46;101806.69;5027832;28;20029;-78
2022/10/17 09:45:24;;;;;;;9.60;8.05;;;;;;;16.31;89.44;101820.41;5027186;28;20520;-78
2022/10/17 09:47:53;;;;;;;;;;;;;;;16.38;88.20;101823.84;5027172;28;20120;-77
2022/10/17 09:50:29;;;;;;;10.10;8.52;;;;;;;16.31;90.12;101840.03;5026620;28;19924;-76
2022/10/17 09:52:57;;;;;;;11.48;8.85;;;;;;;16.31;89.62;101814.81;5028778;28;20112;-77
2022/10/17 09:55:50;;;;;;;12.00;7.97;;;;;;;16.32;89.73;101813.72;5026527;28;20037;-78
2022/10/17 09:58:16;;;;;;;9.52;8.15;;;;;;;16.32;89.93;101799.72;5020581;28;20061;-76
2022/10/17 10:00:49;;;;;;;13.02;8.63;;;;;;;16.34;90.26;101803.06;5028771;28;20021;-77
2022/10/17 10:03:16;;;;;;;12.05;8.77;;;;;;;16.33;90.51;101793.00;5026071;28;20033;-77
2022/10/17 10:05:56;;;;;;;11.15;8.05;;;;;;;16.34;90.74;101800.28;5027312;28;20029;-77
2022/10/17 10:08:25;;;;;;;11.30;7.80;;;;;;;16.39;90.34;101814.34;5025040;28;20074;-75
2022/10/17 10:11:14;;;;;;;11.25;8.07;;;;;;;16.38;90.31;101809.81;5020253;28;20044;-73
2022/10/17 10:13:41;;;;;;;12.15;8.02;;;;;;;16.39;90.04;101823.59;5022886;28;20040;-69
2022/10/17 10:16:17;;;;;;;8.80;7.80;;;;;;;16.38;90.32;101835.88;4998740;28;20065;-68
2022/10/17 10:18:43;;;;;;;10.63;8.40;;;;;;;16.38;90.57;101832.25;5010315;28;20481;-68
2022/10/17 10:21:13;;;;;;;11.48;8.15;;;;;;;16.37;90.24;101839.81;5009333;28;20048;-67
2022/10/17 10:23:41;;;;;;;13.35;7.40;;;;;;;16.37;90.52;101845.41;5002433;28;20036;-72
2022/10/17 10:26:20;;;;;;;9.15;7.65;;;;;;;16.39;90.92;101860.00;4998814;28;20069;-70
2022/10/17 10:28:55;;;;;;;11.68;7.80;;;;;;;16.39;90.56;101864.78;5006598;28;20030;-70
2022/10/17 10:31:38;;;;;;;10.48;8.05;;;;;;;16.40;90.56;101869.25;5009388;28;20112;-71
2022/10/17 10:34:30;;;;;;;12.68;7.30;;;;;;;16.42;90.68;101869.81;5006512;28;20044;-70
2022/10/17 10:37:01;;;;;;;7.70;6.72;;;;;;;16.40;90.77;101872.06;5003538;28;20034;-68
2022/10/17 10:39:37;;;;;;;9.63;6.70;;;;;;;16.40;91.08;101886.91;5005942;28;20128;-68
2022/10/17 10:42:16;;;;;;;9.48;7.25;;;;;;;16.41;90.94;101894.19;4995683;28;20092;-68
2022/10/17 10:44:41;;;;;;;8.13;7.28;;;;;;;16.42;90.54;101903.44;4997683;28;20145;-67
2022/10/17 10:47:20;;;;;;;8.20;6.70;;;;;;;16.44;90.68;101918.88;4999304;28;20037;-68
2022/10/17 10:49:46;;;;;;;7.07;6.03;;;;;;;16.44;90.47;101918.06;5004967;28;20022;-66
2022/10/17 10:52:31;;;;;;;7.35;6.50;;;;;;;16.45;90.51;101928.97;5009109;28;20041;-67
2022/10/17 10:55:13;;;;;;;11.00;6.47;;;;;;;16.45;90.94;101931.78;5005589;28;20034;-66
2022/10/17 10:57:38;;;;;;;7.88;5.80;;;;;;;16.47;90.66;101928.72;5007172;28;20037;-67
2022/10/17 11:00:14;;;;;;;8.32;6.78;;;;;;;16.45;90.81;101920.56;5011235;28;20037;-67
2022/10/17 11:03:15;;;;;;;10.05;6.50;;;;;;;16.48;90.60;101927.63;5009610;28;21079;-67
2022/10/17 11:05:50;;;;;;;8.88;6.60;;;;;;;16.46;90.43;101921.41;5003147;28;20041;-73
2022/10/17 11:08:47;;;;;;;8.80;7.07;;;;;;;16.49;90.41;101928.47;5008064;28;20064;-72
2022/10/17 11:11:25;;;;;;;11.95;7.22;;;;;;;16.46;90.72;101921.41;5005258;28;20048;-74
2022/10/17 11:14:00;;;;;;;7.53;6.72;;;;;;;16.49;90.79;101934.06;5007921;28;20473;-73
2022/10/17 11:16:38;;;;;;;8.45;6.78;;;;;;;16.51;90.74;101931.84;5026383;28;20071;-73
2022/10/17 11:19:11;;;;;;;9.68;7.03;;;;;;;16.51;90.71;101943.06;5026396;28;20044;-65
2022/10/17 11:21:36;;;;;;;;;;;;;;;16.59;89.55;101945.38;5032750;28;20025;-74
2022/10/17 11:24:35;;;;;;;10.45;7.38;;;;;;;16.55;90.39;101947.88;5028196;28;20455;-76
2022/10/17 11:27:03;;;;;;;9.52;7.07;;;;;;;16.53;90.57;101958.47;5016042;28;20362;-75
2022/10/17 11:29:35;;;;;;;10.00;7.22;;;;;;;16.51;90.66;101959.88;5018503;28;20103;-71
2022/10/17 11:32:12;;;;;;;10.90;7.28;;;;;;;16.52;90.28;101959.59;5024463;28;20043;-75
2022/10/17 11:34:45;;;;;;;11.57;7.32;;;;;;;16.51;90.46;101968.28;5026329;28;20040;-76